createdAt,value
2018-06-29T00:00:24.432Z,1015.22
2018-06-29T00:01:24.420Z,1015.23
2018-06-29T00:02:24.407Z,1015.25
2018-06-29T00:03:24.391Z,1015.22
2018-06-29T00:04:24.380Z,1015.24
2018-06-29T00:05:24.367Z,1015.22
2018-06-29T00:06:24.372Z,1015.21
2018-06-29T00:07:24.385Z,1015.23
2018-06-29T00:08:24.326Z,1015.25
2018-06-29T00:09:24.315Z,1015.24
2018-06-29T00:10:24.299Z,1015.26
2018-06-29T00:11:24.291Z,1015.25
2018-06-29T00:12:24.334Z,1015.23
2018-06-29T00:13:24.260Z,1015.23
2018-06-29T00:14:24.255Z,1015.17
2018-06-29T00:15:24.234Z,1015.19
2018-06-29T00:16:24.236Z,1015.14
2018-06-29T00:17:24.210Z,1015.20
2018-06-29T00:18:24.195Z,1015.18
2018-06-29T00:19:24.189Z,1015.22
2018-06-29T00:20:24.172Z,1015.21
2018-06-29T00:21:24.153Z,1015.21
2018-06-29T00:22:24.143Z,1015.22
2018-06-29T00:23:24.135Z,1015.21
2018-06-29T00:24:24.114Z,1015.20
2018-06-29T00:25:24.101Z,1015.22
2018-06-29T00:26:24.090Z,1015.18
2018-06-29T00:27:24.080Z,1015.19
2018-06-29T00:28:24.065Z,1015.22
2018-06-29T00:29:24.050Z,1015.13
2018-06-29T00:30:24.042Z,1015.14
2018-06-29T00:31:24.053Z,1015.09
2018-06-29T00:32:24.015Z,1015.06
2018-06-29T00:33:24.006Z,1015.07
2018-06-29T00:34:23.984Z,1015.02
2018-06-29T00:35:23.971Z,1015.03
2018-06-29T00:36:24.004Z,1015.01
2018-06-29T00:37:23.951Z,1015.03
2018-06-29T00:38:23.933Z,1015.01
2018-06-29T00:39:23.917Z,1014.99
2018-06-29T00:40:23.901Z,1015.01
2018-06-29T00:41:23.893Z,1014.99
2018-06-29T00:42:24.025Z,1015.02
2018-06-29T00:43:23.873Z,1014.99
2018-06-29T00:44:23.850Z,1015.02
2018-06-29T00:45:23.841Z,1014.99
2018-06-29T00:46:23.821Z,1015.01
2018-06-29T00:47:23.809Z,1015.01
2018-06-29T00:48:23.798Z,1015.06
2018-06-29T00:49:23.792Z,1015.06
2018-06-29T00:50:23.770Z,1015.06
2018-06-29T00:51:23.755Z,1015.07
2018-06-29T00:52:23.872Z,1015.06
2018-06-29T00:53:23.732Z,1015.10
2018-06-29T00:54:23.719Z,1015.08
2018-06-29T00:55:23.803Z,1015.08
2018-06-29T00:56:23.688Z,1015.09
2018-06-29T00:57:23.677Z,1015.06
2018-06-29T00:58:23.665Z,1015.04
2018-06-29T00:59:23.648Z,1015.06
2018-06-29T01:00:23.632Z,1015.08
2018-06-29T01:01:23.618Z,1015.05
2018-06-29T01:02:23.607Z,1015.09
2018-06-29T01:03:23.591Z,1015.11
2018-06-29T01:04:23.578Z,1015.09
2018-06-29T01:05:23.568Z,1015.09
2018-06-29T01:06:23.553Z,1015.11
2018-06-29T01:07:23.542Z,1015.06
2018-06-29T01:08:23.533Z,1015.07
2018-06-29T01:09:23.510Z,1015.06
2018-06-29T01:10:23.496Z,1015.07
2018-06-29T01:11:23.643Z,1015.09
2018-06-29T01:12:23.471Z,1015.05
2018-06-29T01:13:23.457Z,1015.06
2018-06-29T01:14:23.447Z,1015.08
2018-06-29T01:15:23.427Z,1015.06
2018-06-29T01:16:23.414Z,1015.04
2018-06-29T01:17:23.407Z,1015.04
2018-06-29T01:18:23.400Z,1015.06
2018-06-29T01:19:23.471Z,1015.08
2018-06-29T01:20:23.361Z,1015.09
2018-06-29T01:21:23.347Z,1015.07
2018-06-29T01:22:23.339Z,1015.08
2018-06-29T01:23:23.321Z,1015.08
2018-06-29T01:24:23.307Z,1015.04
2018-06-29T01:25:23.295Z,1015.04
2018-06-29T01:26:23.279Z,1015.02
2018-06-29T01:27:23.267Z,1015.03
2018-06-29T01:28:23.254Z,1015.04
2018-06-29T01:29:23.238Z,1015.04
2018-06-29T01:30:23.223Z,1015.03
2018-06-29T01:31:23.210Z,1015.06
2018-06-29T01:32:23.195Z,1015.04
2018-06-29T01:33:23.181Z,1015.01
2018-06-29T01:34:23.169Z,1015.03
2018-06-29T01:35:23.157Z,1015.07
2018-06-29T01:36:23.147Z,1015.06
2018-06-29T01:37:23.130Z,1015.09
2018-06-29T01:38:23.116Z,1015.08
2018-06-29T01:39:23.100Z,1015.09
2018-06-29T01:40:23.084Z,1015.09
2018-06-29T01:41:23.152Z,1015.06
2018-06-29T01:42:23.063Z,1015.08
2018-06-29T01:43:23.042Z,1015.04
2018-06-29T01:44:23.031Z,1015.04
2018-06-29T01:45:23.024Z,1015.02
2018-06-29T01:46:23.002Z,1015.05
2018-06-29T01:47:22.987Z,1015.02
2018-06-29T01:48:22.975Z,1014.99
2018-06-29T01:49:22.967Z,1015.02
2018-06-29T01:50:22.948Z,1015.01
2018-06-29T01:51:22.943Z,1015.00
2018-06-29T01:52:22.919Z,1014.99
2018-06-29T01:53:22.905Z,1014.93
2018-06-29T01:54:22.992Z,1014.88
2018-06-29T01:55:22.879Z,1014.91
2018-06-29T01:56:22.862Z,1014.87
2018-06-29T01:57:22.900Z,1014.87
2018-06-29T01:58:22.837Z,1014.86
2018-06-29T01:59:22.824Z,1014.88
2018-06-29T02:00:22.811Z,1014.88
2018-06-29T02:01:22.792Z,1014.85
2018-06-29T02:02:22.777Z,1014.87
2018-06-29T02:03:22.774Z,1014.88
2018-06-29T02:04:22.749Z,1014.87
2018-06-29T02:05:22.737Z,1014.85
2018-06-29T02:06:22.721Z,1014.87
2018-06-29T02:07:22.706Z,1014.86
2018-06-29T02:08:22.701Z,1014.85
2018-06-29T02:09:22.680Z,1014.81
2018-06-29T02:10:22.667Z,1014.79
2018-06-29T02:11:22.655Z,1014.78
2018-06-29T02:12:22.637Z,1014.79
2018-06-29T02:13:22.626Z,1014.80
2018-06-29T02:14:22.610Z,1014.83
2018-06-29T02:15:22.596Z,1014.81
2018-06-29T02:16:22.585Z,1014.80
2018-06-29T02:17:22.571Z,1014.83
2018-06-29T02:18:22.660Z,1014.87
2018-06-29T02:19:22.541Z,1014.86
2018-06-29T02:20:22.532Z,1014.90
2018-06-29T02:21:22.564Z,1014.90
2018-06-29T02:22:22.497Z,1014.88
2018-06-29T02:23:22.483Z,1014.87
2018-06-29T02:24:22.469Z,1014.86
2018-06-29T02:25:22.460Z,1014.88
2018-06-29T02:26:22.443Z,1014.87
2018-06-29T02:27:22.427Z,1014.84
2018-06-29T02:28:22.412Z,1014.86
2018-06-29T02:29:22.399Z,1014.84
2018-06-29T02:30:22.445Z,1014.82
2018-06-29T02:31:22.370Z,1014.82
2018-06-29T02:32:22.357Z,1014.79
2018-06-29T02:33:22.340Z,1014.81
2018-06-29T02:34:22.325Z,1014.80
2018-06-29T02:35:22.314Z,1014.79
2018-06-29T02:36:22.302Z,1014.77
2018-06-29T02:37:22.325Z,1014.72
2018-06-29T02:38:22.271Z,1014.72
2018-06-29T02:39:22.267Z,1014.69
2018-06-29T02:40:22.295Z,1014.65
2018-06-29T02:41:22.230Z,1014.67
2018-06-29T02:42:22.214Z,1014.68
2018-06-29T02:43:22.203Z,1014.69
2018-06-29T02:44:22.185Z,1014.66
2018-06-29T02:45:22.171Z,1014.65
2018-06-29T02:46:22.160Z,1014.70
2018-06-29T02:47:22.143Z,1014.68
2018-06-29T02:48:22.129Z,1014.71
2018-06-29T02:49:22.120Z,1014.71
2018-06-29T02:50:22.099Z,1014.77
2018-06-29T02:51:22.135Z,1014.73
2018-06-29T02:52:22.075Z,1014.73
2018-06-29T02:53:22.059Z,1014.73
2018-06-29T02:54:22.049Z,1014.74
2018-06-29T02:55:22.030Z,1014.78
2018-06-29T02:56:22.029Z,1014.74
2018-06-29T02:57:22.002Z,1014.77
2018-06-29T02:58:21.985Z,1014.75
2018-06-29T02:59:21.974Z,1014.73
2018-06-29T03:00:21.961Z,1014.74
2018-06-29T03:01:21.947Z,1014.75
2018-06-29T03:02:21.930Z,1014.76
2018-06-29T03:03:21.920Z,1014.79
2018-06-29T03:04:21.937Z,1014.77
2018-06-29T03:05:21.888Z,1014.80
2018-06-29T03:06:21.884Z,1014.81
2018-06-29T03:07:21.858Z,1014.80
2018-06-29T03:08:21.853Z,1014.80
2018-06-29T03:09:21.830Z,1014.80
2018-06-29T03:10:21.823Z,1014.77
2018-06-29T03:11:21.799Z,1014.84
2018-06-29T03:12:21.788Z,1014.84
2018-06-29T03:13:21.771Z,1014.85
2018-06-29T03:14:21.759Z,1014.83
2018-06-29T03:15:21.740Z,1014.84
2018-06-29T03:16:21.729Z,1014.82
2018-06-29T03:17:21.727Z,1014.78
2018-06-29T03:18:21.703Z,1014.75
2018-06-29T03:19:21.687Z,1014.78
2018-06-29T03:20:21.771Z,1014.78
2018-06-29T03:21:21.664Z,1014.78
2018-06-29T03:22:21.653Z,1014.80
2018-06-29T03:23:21.648Z,1014.78
2018-06-29T03:24:21.615Z,1014.78
2018-06-29T03:25:21.601Z,1014.76
2018-06-29T03:26:21.591Z,1014.75
2018-06-29T03:27:21.585Z,1014.75
2018-06-29T03:28:21.558Z,1014.77
2018-06-29T03:29:21.544Z,1014.74
2018-06-29T03:30:21.532Z,1014.75
2018-06-29T03:31:21.515Z,1014.78
2018-06-29T03:32:21.502Z,1014.74
2018-06-29T03:33:21.488Z,1014.73
2018-06-29T03:34:21.469Z,1014.76
2018-06-29T03:35:21.456Z,1014.72
2018-06-29T03:36:21.558Z,1014.75
2018-06-29T03:37:21.427Z,1014.72
2018-06-29T03:38:21.410Z,1014.74
2018-06-29T03:39:21.400Z,1014.74
2018-06-29T03:40:21.418Z,1014.73
2018-06-29T03:41:21.375Z,1014.71
2018-06-29T03:42:21.363Z,1014.73
2018-06-29T03:43:21.340Z,1014.72
2018-06-29T03:44:21.325Z,1014.74
2018-06-29T03:45:21.316Z,1014.74
2018-06-29T03:46:21.297Z,1014.79
2018-06-29T03:47:21.325Z,1014.75
2018-06-29T03:48:21.270Z,1014.76
2018-06-29T03:49:21.258Z,1014.76
2018-06-29T03:50:21.241Z,1014.75
2018-06-29T03:51:21.229Z,1014.76
2018-06-29T03:52:21.213Z,1014.77
2018-06-29T03:53:21.200Z,1014.78
2018-06-29T03:54:21.184Z,1014.78
2018-06-29T03:55:21.164Z,1014.78
2018-06-29T03:56:21.152Z,1014.81
2018-06-29T03:57:21.138Z,1014.80
2018-06-29T03:58:21.132Z,1014.78
2018-06-29T03:59:21.110Z,1014.77
2018-06-29T04:00:21.097Z,1014.77
2018-06-29T04:01:21.084Z,1014.76
2018-06-29T04:02:21.066Z,1014.74
2018-06-29T04:03:21.276Z,1014.73
2018-06-29T04:04:21.037Z,1014.72
2018-06-29T04:05:21.031Z,1014.74
2018-06-29T04:06:21.021Z,1014.72
2018-06-29T04:07:20.997Z,1014.72
2018-06-29T04:08:20.987Z,1014.76
2018-06-29T04:09:20.970Z,1014.76
2018-06-29T04:10:20.953Z,1014.74
2018-06-29T04:11:20.940Z,1014.72
2018-06-29T04:12:20.930Z,1014.74
2018-06-29T04:13:20.914Z,1014.74
2018-06-29T04:14:20.900Z,1014.74
2018-06-29T04:15:20.888Z,1014.73
2018-06-29T04:16:20.870Z,1014.69
2018-06-29T04:17:20.855Z,1014.72
2018-06-29T04:18:20.841Z,1014.68
2018-06-29T04:19:20.837Z,1014.72
2018-06-29T04:20:20.811Z,1014.73
2018-06-29T04:21:20.799Z,1014.76
2018-06-29T04:22:20.797Z,1014.75
2018-06-29T04:23:20.772Z,1014.76
2018-06-29T04:24:20.758Z,1014.76
2018-06-29T04:25:20.743Z,1014.83
2018-06-29T04:26:20.735Z,1014.81
2018-06-29T04:27:20.711Z,1014.79
2018-06-29T04:28:20.698Z,1014.79
2018-06-29T04:29:20.683Z,1014.79
2018-06-29T04:30:20.670Z,1014.78
2018-06-29T04:31:20.653Z,1014.84
2018-06-29T04:32:20.641Z,1014.79
2018-06-29T04:33:20.627Z,1014.81
2018-06-29T04:34:20.626Z,1014.78
2018-06-29T04:35:20.599Z,1014.75
2018-06-29T04:36:20.582Z,1014.75
2018-06-29T04:37:20.569Z,1014.76
2018-06-29T04:38:20.561Z,1014.76
2018-06-29T04:39:20.539Z,1014.73
2018-06-29T04:40:20.527Z,1014.72
2018-06-29T04:41:20.512Z,1014.72
2018-06-29T04:42:20.500Z,1014.72
2018-06-29T04:43:20.482Z,1014.73
2018-06-29T04:44:20.470Z,1014.70
2018-06-29T04:45:20.458Z,1014.65
2018-06-29T04:46:20.543Z,1014.67
2018-06-29T04:47:20.424Z,1014.64
2018-06-29T04:48:20.419Z,1014.64
2018-06-29T04:49:20.489Z,1014.63
2018-06-29T04:50:20.385Z,1014.65
2018-06-29T04:51:20.376Z,1014.64
2018-06-29T04:52:20.360Z,1014.66
2018-06-29T04:53:20.380Z,1014.60
2018-06-29T04:54:20.331Z,1014.62
2018-06-29T04:55:20.311Z,1014.64
2018-06-29T04:56:20.296Z,1014.60
2018-06-29T04:57:20.282Z,1014.54
2018-06-29T04:58:20.266Z,1014.58
2018-06-29T04:59:20.256Z,1014.59
2018-06-29T05:00:20.244Z,1014.60
2018-06-29T05:01:20.228Z,1014.61
2018-06-29T05:02:20.212Z,1014.57
2018-06-29T05:03:20.196Z,1014.53
2018-06-29T05:04:20.179Z,1014.61
2018-06-29T05:05:20.174Z,1014.65
2018-06-29T05:06:20.157Z,1014.58
2018-06-29T05:07:20.143Z,1014.61
2018-06-29T05:08:20.130Z,1014.65
2018-06-29T05:09:20.115Z,1014.65
2018-06-29T05:10:20.100Z,1014.66
2018-06-29T05:11:20.079Z,1014.68
2018-06-29T05:12:20.064Z,1014.69
2018-06-29T05:13:20.050Z,1014.64
2018-06-29T05:14:20.037Z,1014.70
2018-06-29T05:15:20.021Z,1014.68
2018-06-29T05:16:20.006Z,1014.68
2018-06-29T05:17:19.998Z,1014.68
2018-06-29T05:18:19.976Z,1014.68
2018-06-29T05:19:19.965Z,1014.66
2018-06-29T05:20:19.960Z,1014.72
2018-06-29T05:21:19.933Z,1014.71
2018-06-29T05:22:19.918Z,1014.74
2018-06-29T05:23:19.910Z,1014.74
2018-06-29T05:24:19.890Z,1014.75
2018-06-29T05:25:19.878Z,1014.76
2018-06-29T05:26:19.860Z,1014.77
2018-06-29T05:27:19.849Z,1014.74
2018-06-29T05:28:19.841Z,1014.76
2018-06-29T05:29:19.934Z,1014.75
2018-06-29T05:30:19.806Z,1014.77
2018-06-29T05:31:19.789Z,1014.76
2018-06-29T05:32:19.777Z,1014.72
2018-06-29T05:33:19.760Z,1014.73
2018-06-29T05:34:19.754Z,1014.75
2018-06-29T05:35:19.728Z,1014.79
2018-06-29T05:36:19.735Z,1014.78
2018-06-29T05:37:19.704Z,1014.82
2018-06-29T05:38:19.688Z,1014.80
2018-06-29T05:39:19.676Z,1014.85
2018-06-29T05:40:19.657Z,1014.86
2018-06-29T05:41:19.669Z,1014.87
2018-06-29T05:42:19.633Z,1014.88
2018-06-29T05:43:19.617Z,1014.88
2018-06-29T05:44:19.601Z,1014.88
2018-06-29T05:45:19.585Z,1014.86
2018-06-29T05:46:19.794Z,1014.90
2018-06-29T05:47:19.558Z,1014.86
2018-06-29T05:48:19.601Z,1014.88
2018-06-29T05:49:19.643Z,1014.85
2018-06-29T05:50:19.513Z,1014.89
2018-06-29T05:51:19.549Z,1014.92
2018-06-29T05:52:19.490Z,1014.91
2018-06-29T05:53:19.469Z,1014.95
2018-06-29T05:54:19.461Z,1014.90
2018-06-29T05:55:19.443Z,1014.92
2018-06-29T05:56:19.427Z,1014.88
2018-06-29T05:57:19.419Z,1014.87
2018-06-29T05:58:19.400Z,1014.83
2018-06-29T05:59:19.387Z,1014.82
2018-06-29T06:00:19.383Z,1014.77
2018-06-29T06:01:19.357Z,1014.82
2018-06-29T06:02:19.349Z,1014.79
2018-06-29T06:03:19.330Z,1014.79
2018-06-29T06:04:19.316Z,1014.76
2018-06-29T06:05:19.299Z,1014.78
2018-06-29T06:06:19.284Z,1014.76
2018-06-29T06:07:19.373Z,1014.81
2018-06-29T06:08:19.265Z,1014.75
2018-06-29T06:09:19.245Z,1014.84
2018-06-29T06:10:19.236Z,1014.81
2018-06-29T06:11:19.216Z,1014.82
2018-06-29T06:12:19.205Z,1014.84
2018-06-29T06:13:19.204Z,1014.86
2018-06-29T06:14:19.176Z,1014.80
2018-06-29T06:15:19.211Z,1014.82
2018-06-29T06:16:19.150Z,1014.76
2018-06-29T06:17:19.131Z,1014.77
2018-06-29T06:18:19.121Z,1014.70
2018-06-29T06:19:19.112Z,1014.71
2018-06-29T06:20:19.092Z,1014.73
2018-06-29T06:21:19.094Z,1014.70
2018-06-29T06:22:19.064Z,1014.71
2018-06-29T06:23:19.048Z,1014.71
2018-06-29T06:24:19.047Z,1014.69
2018-06-29T06:25:19.033Z,1014.69
2018-06-29T06:26:19.010Z,1014.73
2018-06-29T06:27:18.994Z,1014.71
2018-06-29T06:28:18.981Z,1014.72
2018-06-29T06:29:18.969Z,1014.69
2018-06-29T06:30:18.956Z,1014.72
2018-06-29T06:31:18.943Z,1014.70
2018-06-29T06:32:18.922Z,1014.68
2018-06-29T06:33:18.923Z,1014.69
2018-06-29T06:34:18.898Z,1014.66
2018-06-29T06:35:18.883Z,1014.70
2018-06-29T06:36:18.867Z,1014.66
2018-06-29T06:37:18.853Z,1014.67
2018-06-29T06:38:18.839Z,1014.70
2018-06-29T06:39:18.823Z,1014.72
2018-06-29T06:40:18.809Z,1014.73
2018-06-29T06:41:18.800Z,1014.67
2018-06-29T06:42:18.788Z,1014.71
2018-06-29T06:43:18.775Z,1014.75
2018-06-29T06:44:18.757Z,1014.75
2018-06-29T06:45:18.748Z,1014.73
2018-06-29T06:46:18.731Z,1014.71
2018-06-29T06:47:18.718Z,1014.72
2018-06-29T06:48:18.703Z,1014.75
2018-06-29T06:49:18.686Z,1014.71
2018-06-29T06:50:18.671Z,1014.74
2018-06-29T06:51:18.661Z,1014.73
2018-06-29T06:52:18.645Z,1014.71
2018-06-29T06:53:18.629Z,1014.74
2018-06-29T06:54:18.617Z,1014.76
2018-06-29T06:55:18.601Z,1014.72
2018-06-29T06:56:18.609Z,1014.74
2018-06-29T06:57:18.584Z,1014.74
2018-06-29T06:58:18.568Z,1014.69
2018-06-29T06:59:18.580Z,1014.70
2018-06-29T07:00:18.535Z,1014.69
2018-06-29T07:01:18.522Z,1014.67
2018-06-29T07:02:18.509Z,1014.67
2018-06-29T07:03:18.497Z,1014.63
2018-06-29T07:04:18.481Z,1014.63
2018-06-29T07:05:18.468Z,1014.61
2018-06-29T07:06:18.453Z,1014.57
2018-06-29T07:07:18.436Z,1014.53
2018-06-29T07:08:18.424Z,1014.51
2018-06-29T07:09:18.421Z,1014.54
2018-06-29T07:10:18.397Z,1014.53
2018-06-29T07:11:18.389Z,1014.52
2018-06-29T07:12:18.367Z,1014.54
2018-06-29T07:13:18.360Z,1014.55
2018-06-29T07:14:18.390Z,1014.58
2018-06-29T07:15:18.326Z,1014.54
2018-06-29T07:16:18.313Z,1014.56
2018-06-29T07:17:18.352Z,1014.54
2018-06-29T07:18:18.294Z,1014.56
2018-06-29T07:19:18.272Z,1014.57
2018-06-29T07:20:18.263Z,1014.57
2018-06-29T07:21:18.248Z,1014.54
2018-06-29T07:22:18.233Z,1014.55
2018-06-29T07:23:18.232Z,1014.56
2018-06-29T07:24:18.206Z,1014.56
2018-06-29T07:25:18.192Z,1014.58
2018-06-29T07:26:18.179Z,1014.57
2018-06-29T07:27:18.172Z,1014.63
2018-06-29T07:28:18.159Z,1014.64
2018-06-29T07:29:18.140Z,1014.63
2018-06-29T07:30:18.178Z,1014.66
2018-06-29T07:31:18.113Z,1014.67
2018-06-29T07:32:18.099Z,1014.66
2018-06-29T07:33:18.136Z,1014.64
2018-06-29T07:34:18.077Z,1014.68
2018-06-29T07:35:18.066Z,1014.67
2018-06-29T07:36:18.057Z,1014.69
2018-06-29T07:37:18.037Z,1014.68
2018-06-29T07:38:18.021Z,1014.71
2018-06-29T07:39:18.010Z,1014.66
2018-06-29T07:40:18.006Z,1014.63
2018-06-29T07:41:17.980Z,1014.65
2018-06-29T07:42:17.970Z,1014.60
2018-06-29T07:43:17.959Z,1014.62
2018-06-29T07:44:17.941Z,1014.55
2018-06-29T07:45:17.932Z,1014.60
2018-06-29T07:46:17.923Z,1014.59
2018-06-29T07:47:17.904Z,1014.58
2018-06-29T07:48:17.890Z,1014.58
2018-06-29T07:49:17.933Z,1014.53
2018-06-29T07:50:17.865Z,1014.54
2018-06-29T07:51:17.853Z,1014.53
2018-06-29T07:52:17.842Z,1014.52
2018-06-29T07:53:17.829Z,1014.50
2018-06-29T07:54:17.814Z,1014.49
2018-06-29T07:55:17.823Z,1014.49
2018-06-29T07:56:17.800Z,1014.47
2018-06-29T07:57:17.794Z,1014.48
2018-06-29T07:58:17.954Z,1014.45
2018-06-29T07:59:17.759Z,1014.48
2018-06-29T08:00:17.740Z,1014.46
2018-06-29T08:01:17.730Z,1014.48
2018-06-29T08:02:17.740Z,1014.47
2018-06-29T08:03:17.702Z,1014.48
2018-06-29T08:04:17.691Z,1014.47
2018-06-29T08:05:17.683Z,1014.43
2018-06-29T08:06:17.663Z,1014.42
2018-06-29T08:07:17.650Z,1014.42
2018-06-29T08:08:17.640Z,1014.41
2018-06-29T08:09:17.627Z,1014.43
2018-06-29T08:10:17.618Z,1014.44
2018-06-29T08:11:17.608Z,1014.39
2018-06-29T08:12:17.590Z,1014.39
2018-06-29T08:13:17.629Z,1014.39
2018-06-29T08:14:17.567Z,1014.39
2018-06-29T08:15:17.555Z,1014.29
2018-06-29T08:16:17.549Z,1014.32
2018-06-29T08:17:17.529Z,1014.25
2018-06-29T08:18:17.520Z,1014.24
2018-06-29T08:19:17.504Z,1014.29
2018-06-29T08:20:17.496Z,1014.32
2018-06-29T08:21:17.480Z,1014.32
2018-06-29T08:22:17.472Z,1014.34
2018-06-29T08:23:17.458Z,1014.37
2018-06-29T08:24:17.513Z,1014.30
2018-06-29T08:25:17.446Z,1014.29
2018-06-29T08:26:17.429Z,1014.31
2018-06-29T08:27:17.410Z,1014.26
2018-06-29T08:28:17.405Z,1014.28
2018-06-29T08:29:17.497Z,1014.26
2018-06-29T08:30:17.385Z,1014.23
2018-06-29T08:31:17.374Z,1014.27
2018-06-29T08:32:17.350Z,1014.28
2018-06-29T08:33:17.337Z,1014.26
2018-06-29T08:34:17.328Z,1014.26
2018-06-29T08:35:17.318Z,1014.28
2018-06-29T08:36:17.309Z,1014.26
2018-06-29T08:37:17.294Z,1014.30
2018-06-29T08:38:17.282Z,1014.29
2018-06-29T08:39:17.268Z,1014.29
2018-06-29T08:40:17.262Z,1014.31
2018-06-29T08:41:17.249Z,1014.31
2018-06-29T08:42:17.264Z,1014.36
2018-06-29T08:43:17.224Z,1014.34
2018-06-29T08:44:17.279Z,1014.32
2018-06-29T08:45:17.203Z,1014.31
2018-06-29T08:46:17.191Z,1014.29
2018-06-29T08:47:17.180Z,1014.28
2018-06-29T08:48:17.169Z,1014.29
2018-06-29T08:49:17.158Z,1014.27
2018-06-29T08:50:17.142Z,1014.24
2018-06-29T08:51:17.133Z,1014.27
2018-06-29T08:52:17.154Z,1014.22
2018-06-29T08:53:17.191Z,1014.24
2018-06-29T08:54:17.099Z,1014.22
2018-06-29T08:55:17.089Z,1014.24
2018-06-29T08:56:17.089Z,1014.26
2018-06-29T08:57:17.067Z,1014.29
2018-06-29T08:58:17.052Z,1014.25
2018-06-29T08:59:17.040Z,1014.26
2018-06-29T09:00:17.029Z,1014.24
2018-06-29T09:01:17.019Z,1014.24
2018-06-29T09:02:17.006Z,1014.26
2018-06-29T09:03:16.995Z,1014.22
2018-06-29T09:04:16.999Z,1014.28
2018-06-29T09:05:16.975Z,1014.25
2018-06-29T09:06:16.966Z,1014.27
2018-06-29T09:07:16.948Z,1014.20
2018-06-29T09:08:16.938Z,1014.17
2018-06-29T09:09:17.079Z,1014.22
2018-06-29T09:10:16.922Z,1014.16
2018-06-29T09:11:16.913Z,1014.17
2018-06-29T09:12:16.896Z,1014.17
2018-06-29T09:13:16.894Z,1014.16
2018-06-29T09:14:16.888Z,1014.18
2018-06-29T09:15:16.864Z,1014.17
2018-06-29T09:16:16.859Z,1014.16
2018-06-29T09:17:16.849Z,1014.19
2018-06-29T09:18:16.840Z,1014.17
2018-06-29T09:19:16.820Z,1014.23
2018-06-29T09:20:16.810Z,1014.20
2018-06-29T09:21:16.852Z,1014.15
2018-06-29T09:22:16.793Z,1014.15
2018-06-29T09:23:16.778Z,1014.19
2018-06-29T09:24:16.815Z,1014.14
2018-06-29T09:25:16.767Z,1014.12
2018-06-29T09:26:16.754Z,1014.09
2018-06-29T09:27:16.740Z,1014.10
2018-06-29T09:28:16.726Z,1014.09
2018-06-29T09:29:16.725Z,1014.06
2018-06-29T09:30:16.709Z,1014.05
2018-06-29T09:31:16.691Z,1014.13
2018-06-29T09:32:16.685Z,1014.05
2018-06-29T09:33:16.677Z,1014.03
2018-06-29T09:34:16.662Z,1014.07
2018-06-29T09:35:16.652Z,1014.09
2018-06-29T09:36:16.738Z,1014.11
2018-06-29T09:37:16.654Z,1014.08
2018-06-29T09:38:16.621Z,1014.03
2018-06-29T09:39:16.614Z,1013.97
2018-06-29T09:40:16.598Z,1013.98
2018-06-29T09:41:16.597Z,1013.98
2018-06-29T09:42:16.585Z,1013.98
2018-06-29T09:43:16.566Z,1014.01
2018-06-29T09:44:16.559Z,1013.96
2018-06-29T09:45:16.553Z,1013.97
2018-06-29T09:46:16.534Z,1014.01
2018-06-29T09:47:16.525Z,1013.96
2018-06-29T09:48:16.511Z,1014.00
2018-06-29T09:49:16.601Z,1013.95
2018-06-29T09:50:16.501Z,1013.94
2018-06-29T09:51:16.479Z,1013.90
2018-06-29T09:52:16.472Z,1013.91
2018-06-29T09:53:16.461Z,1013.92
2018-06-29T09:54:16.447Z,1013.89
2018-06-29T09:55:16.440Z,1013.86
2018-06-29T09:56:16.439Z,1013.84
2018-06-29T09:57:16.416Z,1013.85
2018-06-29T09:58:16.412Z,1013.84
2018-06-29T09:59:16.398Z,1013.82
2018-06-29T10:00:16.392Z,1013.76
2018-06-29T10:01:16.466Z,1013.72
2018-06-29T10:02:16.367Z,1013.75
2018-06-29T10:03:16.352Z,1013.77
2018-06-29T10:04:16.345Z,1013.78
2018-06-29T10:05:16.390Z,1013.75
2018-06-29T10:06:16.331Z,1013.76
2018-06-29T10:07:16.315Z,1013.75
2018-06-29T10:08:16.307Z,1013.80
2018-06-29T10:09:16.291Z,1013.75
2018-06-29T10:10:16.280Z,1013.75
2018-06-29T10:11:16.273Z,1013.74
2018-06-29T10:12:16.261Z,1013.73
2018-06-29T10:13:16.253Z,1013.73
2018-06-29T10:14:16.361Z,1013.68
2018-06-29T10:15:16.230Z,1013.67
2018-06-29T10:16:16.230Z,1013.68
2018-06-29T10:17:16.214Z,1013.71
2018-06-29T10:18:16.208Z,1013.65
2018-06-29T10:19:16.191Z,1013.64
2018-06-29T10:20:16.289Z,1013.67
2018-06-29T10:21:16.269Z,1013.68
2018-06-29T10:22:16.235Z,1013.65
2018-06-29T10:23:16.149Z,1013.63
2018-06-29T10:24:16.225Z,1013.65
2018-06-29T10:25:16.228Z,1013.60
2018-06-29T10:26:16.275Z,1013.62
2018-06-29T10:27:16.112Z,1013.56
2018-06-29T10:28:16.232Z,1013.62
2018-06-29T10:29:16.109Z,1013.63
2018-06-29T10:30:16.082Z,1013.52
2018-06-29T10:31:16.082Z,1013.52
2018-06-29T10:32:16.068Z,1013.51
2018-06-29T10:33:16.056Z,1013.48
2018-06-29T10:34:16.042Z,1013.49
2018-06-29T10:35:16.035Z,1013.47
2018-06-29T10:36:16.026Z,1013.44
2018-06-29T10:37:16.011Z,1013.47
2018-06-29T10:38:16.004Z,1013.46
2018-06-29T10:39:15.988Z,1013.43
2018-06-29T10:40:15.994Z,1013.44
2018-06-29T10:41:15.977Z,1013.43
2018-06-29T10:42:16.119Z,1013.37
2018-06-29T10:43:15.952Z,1013.38
2018-06-29T10:44:15.942Z,1013.45
2018-06-29T10:45:15.940Z,1013.44
2018-06-29T10:46:15.924Z,1013.38
2018-06-29T10:47:15.910Z,1013.41
2018-06-29T10:48:15.900Z,1013.40
2018-06-29T10:49:15.890Z,1013.34
2018-06-29T10:50:15.883Z,1013.33
2018-06-29T10:51:15.879Z,1013.33
2018-06-29T10:52:15.863Z,1013.33
2018-06-29T10:53:15.853Z,1013.35
2018-06-29T10:54:15.842Z,1013.33
2018-06-29T10:55:15.842Z,1013.30
2018-06-29T10:56:15.850Z,1013.27
2018-06-29T10:57:15.814Z,1013.28
2018-06-29T10:58:15.959Z,1013.34
2018-06-29T10:59:15.793Z,1013.30
2018-06-29T11:00:15.785Z,1013.33
2018-06-29T11:01:15.846Z,1013.24
2018-06-29T11:02:15.779Z,1013.24
2018-06-29T11:03:15.757Z,1013.24
2018-06-29T11:04:15.749Z,1013.19
2018-06-29T11:05:15.741Z,1013.20
2018-06-29T11:06:15.730Z,1013.15
2018-06-29T11:07:15.722Z,1013.12
2018-06-29T11:08:15.706Z,1013.16
2018-06-29T11:09:15.699Z,1013.12
2018-06-29T11:10:15.694Z,1013.12
2018-06-29T11:11:15.681Z,1013.14
2018-06-29T11:12:15.668Z,1013.14
2018-06-29T11:13:15.660Z,1013.13
2018-06-29T11:14:15.801Z,1013.11
2018-06-29T11:15:15.640Z,1013.09
2018-06-29T11:16:15.638Z,1013.10
2018-06-29T11:17:15.620Z,1013.10
2018-06-29T11:18:15.612Z,1013.16
2018-06-29T11:19:15.724Z,1013.16
2018-06-29T11:20:15.604Z,1013.14
2018-06-29T11:21:15.591Z,1013.07
2018-06-29T11:22:15.679Z,1013.08
2018-06-29T11:23:15.565Z,1013.12
2018-06-29T11:24:15.556Z,1013.06
2018-06-29T11:25:15.550Z,1013.04
2018-06-29T11:26:15.555Z,1013.05
2018-06-29T11:27:15.527Z,1013.01
2018-06-29T11:28:15.526Z,1013.03
2018-06-29T11:29:15.510Z,1013.02
2018-06-29T11:30:15.513Z,1012.98
2018-06-29T11:31:15.502Z,1012.98
2018-06-29T11:32:15.479Z,1012.96
2018-06-29T11:33:15.470Z,1012.96
2018-06-29T11:34:15.464Z,1012.98
2018-06-29T11:35:15.454Z,1012.99
2018-06-29T11:36:15.451Z,1012.98
2018-06-29T11:37:15.432Z,1013.03
2018-06-29T11:38:15.480Z,1012.99
2018-06-29T11:39:15.410Z,1013.01
2018-06-29T11:40:15.407Z,1013.00
2018-06-29T11:41:15.402Z,1012.98
2018-06-29T11:42:15.388Z,1013.03
2018-06-29T11:43:15.380Z,1012.99
2018-06-29T11:44:15.448Z,1012.96
2018-06-29T11:45:15.359Z,1012.94
2018-06-29T11:46:15.347Z,1013.01
2018-06-29T11:47:15.343Z,1012.94
2018-06-29T11:48:15.337Z,1012.91
2018-06-29T11:49:15.326Z,1012.94
2018-06-29T11:50:15.311Z,1012.89
2018-06-29T11:51:15.306Z,1012.92
2018-06-29T11:52:15.291Z,1012.94
2018-06-29T11:53:15.291Z,1012.93
2018-06-29T11:54:15.309Z,1012.89
2018-06-29T11:55:15.271Z,1012.91
2018-06-29T11:56:15.257Z,1012.88
2018-06-29T11:57:15.243Z,1012.93
2018-06-29T11:58:15.233Z,1012.92
2018-06-29T11:59:15.226Z,1012.93
2018-06-29T12:00:15.215Z,1012.96
2018-06-29T12:01:15.203Z,1012.96
2018-06-29T12:02:15.202Z,1012.92
2018-06-29T12:03:15.186Z,1012.93
2018-06-29T12:04:15.178Z,1012.89
2018-06-29T12:05:15.170Z,1012.85